createdAt,value
2019-04-14T00:01:37.552Z,100419.54
2019-04-14T00:05:45.091Z,100417.09
2019-04-14T00:09:52.105Z,100418.47
2019-04-14T00:13:58.932Z,100421.09
2019-04-14T00:18:07.521Z,100419.38
2019-04-14T00:22:14.304Z,100412.09
2019-04-14T00:26:31.537Z,100413.59
2019-04-14T00:30:38.492Z,100417.58
2019-04-14T00:35:04.362Z,100415.66
2019-04-14T00:39:27.274Z,100417.75
2019-04-14T00:43:50.534Z,100408.20
2019-04-14T00:48:20.865Z,100412.59
2019-04-14T00:52:27.713Z,100403.77
2019-04-14T00:56:34.655Z,100401.25
2019-04-14T01:00:41.355Z,100396.49
2019-04-14T01:04:49.129Z,100391.09
2019-04-14T01:08:55.917Z,100380.13
2019-04-14T01:13:02.789Z,100388.80
2019-04-14T01:17:09.530Z,100385.64
2019-04-14T01:21:17.359Z,100384.55
2019-04-14T01:25:24.395Z,100381.06
2019-04-14T01:29:31.984Z,100375.87
2019-04-14T01:33:40.018Z,100383.11
2019-04-14T01:37:46.998Z,100387.09
2019-04-14T01:41:54.329Z,100386.83
2019-04-14T01:46:09.697Z,100378.98
2019-04-14T01:50:10.515Z,100381.23
2019-04-14T01:54:43.554Z,100378.91
2019-04-14T01:58:53.444Z,100379.88
2019-04-14T02:03:00.181Z,100378.98
2019-04-14T02:07:08.128Z,100385.30
2019-04-14T02:11:15.862Z,100395.28
2019-04-14T02:15:22.693Z,100401.22
2019-04-14T02:19:30.559Z,100391.36
2019-04-14T02:23:38.578Z,100383.66
2019-04-14T02:27:45.365Z,100389.80
2019-04-14T02:32:30.077Z,100387.41
2019-04-14T02:40:47.372Z,100390.84
2019-04-14T02:44:45.928Z,100388.94
2019-04-14T02:48:55.492Z,100389.63
2019-04-14T02:53:09.122Z,100392.92
2019-04-14T02:57:12.474Z,100388.63
2019-04-14T03:01:23.911Z,100385.34
2019-04-14T03:05:26.459Z,100389.18
2019-04-14T03:13:58.571Z,100386.98
2019-04-14T03:18:35.603Z,100386.31
2019-04-14T03:22:37.078Z,100385.19
2019-04-14T03:27:10.136Z,100381.02
2019-04-14T03:31:38.009Z,100380.38
2019-04-14T03:35:50.963Z,100373.10
2019-04-14T03:43:36.859Z,100385.34
2019-04-14T03:48:02.107Z,100387.16
2019-04-14T03:51:59.607Z,100390.18
2019-04-14T03:56:37.868Z,100386.25
2019-04-14T04:00:44.588Z,100390.12
2019-04-14T04:04:51.367Z,100393.94
2019-04-14T04:08:59.843Z,100392.00
2019-04-14T04:13:06.654Z,100392.75
2019-04-14T04:17:47.283Z,100399.36
2019-04-14T04:22:19.332Z,100397.23
2019-04-14T04:26:51.788Z,100404.27
2019-04-14T04:31:26.505Z,100407.86
2019-04-14T04:35:40.047Z,100415.16
2019-04-14T04:39:47.647Z,100414.55
2019-04-14T04:43:54.379Z,100432.38
2019-04-14T04:48:02.315Z,100434.02
2019-04-14T04:52:12.318Z,100444.98
2019-04-14T04:56:18.681Z,100440.98
2019-04-14T05:00:26.635Z,100446.21
2019-04-14T05:04:33.504Z,100448.53
2019-04-14T05:08:45.867Z,100440.27
2019-04-14T05:13:10.068Z,100444.97
2019-04-14T05:17:19.046Z,100449.44
2019-04-14T05:21:25.832Z,100461.77
2019-04-14T05:25:32.535Z,100458.59
2019-04-14T05:29:39.275Z,100471.41
2019-04-14T05:33:46.869Z,100479.59
2019-04-14T05:37:55.072Z,100475.25
2019-04-14T05:42:09.093Z,100480.81
2019-04-14T05:46:12.073Z,100482.93
2019-04-14T05:50:18.880Z,100486.78
2019-04-14T05:54:25.797Z,100479.42
2019-04-14T05:58:32.547Z,100477.63
2019-04-14T06:02:39.963Z,100479.17
2019-04-14T06:06:46.987Z,100490.39
2019-04-14T06:10:53.686Z,100495.11
2019-04-14T06:15:00.377Z,100499.05
2019-04-14T06:19:07.389Z,100498.55
2019-04-14T06:23:14.166Z,100498.17
2019-04-14T06:27:20.999Z,100510.73
2019-04-14T06:31:36.307Z,100504.16
2019-04-14T06:35:56.263Z,100509.71
2019-04-14T06:40:07.222Z,100512.59
2019-04-14T06:44:14.102Z,100513.03
2019-04-14T06:48:22.510Z,100509.36
2019-04-14T06:52:29.470Z,100504.02
2019-04-14T06:56:36.140Z,100502.31
2019-04-14T07:00:42.852Z,100496.71
2019-04-14T07:04:49.673Z,100502.98
2019-04-14T07:08:56.634Z,100514.19
2019-04-14T07:13:04.315Z,100501.80
2019-04-14T07:17:11.042Z,100507.95
2019-04-14T07:21:17.661Z,100508.45
2019-04-14T07:25:24.434Z,100514.36
2019-04-14T07:29:37.913Z,100519.91
2019-04-14T07:34:02.213Z,100521.34
2019-04-14T07:38:13.443Z,100520.75
2019-04-14T07:42:37.007Z,100529.06
2019-04-14T07:47:11.741Z,100520.77
2019-04-14T07:51:31.579Z,100528.77
2019-04-14T07:56:00.159Z,100529.00
2019-04-14T08:00:14.968Z,100535.45
2019-04-14T08:04:26.709Z,100531.84
2019-04-14T08:08:33.530Z,100534.38
2019-04-14T08:12:40.787Z,100531.28
2019-04-14T08:16:48.115Z,100527.67
2019-04-14T08:20:55.081Z,100532.31
2019-04-14T08:25:02.236Z,100531.80
2019-04-14T08:29:10.026Z,100534.36
2019-04-14T08:33:16.907Z,100541.39
2019-04-14T08:37:23.722Z,100542.23
2019-04-14T08:41:36.920Z,100539.73
2019-04-14T08:45:52.474Z,100542.16
2019-04-14T08:50:39.307Z,100543.72
2019-04-14T08:54:57.648Z,100539.34
2019-04-14T08:59:26.177Z,100541.14
2019-04-14T09:03:54.852Z,100543.95
2019-04-14T09:08:24.543Z,100543.14
2019-04-14T09:12:34.505Z,100545.53
2019-04-14T09:16:41.469Z,100545.02
2019-04-14T09:20:52.415Z,100540.77
2019-04-14T09:24:57.107Z,100543.21
2019-04-14T09:29:04.032Z,100542.41
2019-04-14T09:33:11.028Z,100546.73
2019-04-14T09:37:17.901Z,100546.50
2019-04-14T09:41:24.821Z,100540.84
2019-04-14T09:45:31.707Z,100537.61
2019-04-14T09:49:38.387Z,100541.81
2019-04-14T09:53:45.175Z,100535.18
2019-04-14T09:57:53.728Z,100534.73
2019-04-14T10:02:00.739Z,100542.48
2019-04-14T10:06:07.549Z,100533.11
2019-04-14T10:10:14.601Z,100533.20
2019-04-14T10:14:21.476Z,100546.99
2019-04-14T10:18:28.379Z,100536.67
2019-04-14T10:22:35.337Z,100539.59
2019-04-14T10:26:42.062Z,100535.25
2019-04-14T10:30:49.117Z,100543.23
2019-04-14T10:34:55.937Z,100540.30
2019-04-14T10:39:04.394Z,100545.94
2019-04-14T10:43:11.785Z,100534.29
2019-04-14T10:47:18.518Z,100534.68
2019-04-14T10:51:30.346Z,100542.20
2019-04-14T10:55:33.878Z,100539.98
2019-04-14T10:59:41.503Z,100534.83
2019-04-14T11:03:48.375Z,100543.82
2019-04-14T11:07:55.393Z,100536.98
2019-04-14T11:12:02.373Z,100540.02
2019-04-14T11:16:09.089Z,100540.61
2019-04-14T11:20:16.486Z,100538.50
2019-04-14T11:24:24.203Z,100537.35
2019-04-14T11:28:34.146Z,100542.41
2019-04-14T11:32:49.728Z,100545.93
2019-04-14T11:37:28.673Z,100547.45
2019-04-14T11:41:35.479Z,100540.08
2019-04-14T11:45:42.351Z,100542.22
2019-04-14T11:49:49.221Z,100535.14
2019-04-14T11:53:56.084Z,100535.19
2019-04-14T11:58:03.096Z,100535.69
2019-04-14T12:02:19.262Z,100536.90
2019-04-14T12:06:38.598Z,100535.19
2019-04-14T12:10:45.417Z,100534.58
2019-04-14T12:14:52.237Z,100546.07
2019-04-14T12:18:59.082Z,100550.38
2019-04-14T12:23:05.869Z,100549.97
2019-04-14T12:27:13.037Z,100549.70
2019-04-14T12:31:20.219Z,100545.12
2019-04-14T12:35:30.056Z,100556.88
2019-04-14T12:39:36.980Z,100559.86
2019-04-14T12:44:11.744Z,100570.20
2019-04-14T12:48:37.649Z,100552.83
2019-04-14T12:52:45.899Z,100561.52
2019-04-14T12:56:52.696Z,100574.17
2019-04-14T13:01:04.864Z,100569.48
2019-04-14T13:05:11.622Z,100568.83
2019-04-14T13:09:18.333Z,100576.77
2019-04-14T13:13:25.056Z,100572.52
2019-04-14T13:17:31.820Z,100576.55
2019-04-14T13:21:40.562Z,100572.41
2019-04-14T13:25:47.612Z,100563.59
2019-04-14T13:29:56.606Z,100577.70
2019-04-14T13:34:05.085Z,100573.98
2019-04-14T13:38:11.979Z,100561.25
2019-04-14T13:42:18.846Z,100573.52
2019-04-14T13:46:25.836Z,100568.27
2019-04-14T13:50:32.599Z,100566.88
2019-04-14T13:54:39.334Z,100581.20
2019-04-14T13:58:46.124Z,100577.34
2019-04-14T14:02:52.943Z,100567.77
2019-04-14T14:06:59.768Z,100573.73
2019-04-14T14:11:17.883Z,100581.50
2019-04-14T14:15:45.950Z,100571.16
2019-04-14T14:20:07.537Z,100570.44
2019-04-14T14:24:47.246Z,100569.30
2019-04-14T14:28:57.003Z,100563.05
2019-04-14T14:33:05.145Z,100572.58
2019-04-14T14:37:13.511Z,100568.16
2019-04-14T14:41:21.230Z,100565.66
2019-04-14T14:45:59.946Z,100570.98
2019-04-14T14:50:29.559Z,100556.55
2019-04-14T14:54:37.660Z,100565.25
2019-04-14T14:58:46.282Z,100564.56
2019-04-14T15:02:56.577Z,100569.61
2019-04-14T15:07:03.563Z,100564.14
2019-04-14T15:11:10.478Z,100567.20
2019-04-14T15:15:17.506Z,100573.52
2019-04-14T15:19:24.650Z,100574.12
2019-04-14T15:23:31.581Z,100582.52
2019-04-14T15:27:38.487Z,100584.62
2019-04-14T15:31:45.301Z,100583.46
2019-04-14T15:35:52.114Z,100589.58
2019-04-14T15:39:58.944Z,100596.88
2019-04-14T15:44:07.685Z,100606.95
2019-04-14T15:48:25.265Z,100605.72
2019-04-14T15:52:33.890Z,100610.16
2019-04-14T15:57:05.908Z,100615.59
2019-04-14T16:01:33.342Z,100615.36
2019-04-14T16:06:04.144Z,100620.41
2019-04-14T16:10:34.862Z,100632.39
2019-04-14T16:15:03.217Z,100637.42
2019-04-14T16:19:35.912Z,100628.79
2019-04-14T16:23:50.425Z,100627.13
2019-04-14T16:28:03.102Z,100637.79
2019-04-14T16:32:29.800Z,100644.83
2019-04-14T16:36:42.037Z,100647.33
2019-04-14T16:40:50.409Z,100655.73
2019-04-14T16:45:00.556Z,100659.69
2019-04-14T16:49:09.944Z,100658.72
2019-04-14T16:53:31.954Z,100671.74
2019-04-14T16:58:16.033Z,100673.28
2019-04-14T17:02:22.961Z,100679.70
2019-04-14T17:06:29.850Z,100687.35
2019-04-14T17:10:36.733Z,100682.52
2019-04-14T17:14:51.328Z,100701.20
2019-04-14T17:19:03.730Z,100704.00
2019-04-14T17:23:29.121Z,100708.09
2019-04-14T17:27:40.437Z,100715.03
2019-04-14T17:32:08.352Z,100719.15
2019-04-14T17:36:24.691Z,100716.69
2019-04-14T17:40:39.545Z,100722.61
2019-04-14T17:44:54.727Z,100729.90
2019-04-14T17:49:20.708Z,100737.79
2019-04-14T17:53:49.287Z,100735.97
2019-04-14T17:58:28.244Z,100746.69
2019-04-14T18:02:58.768Z,100756.59
2019-04-14T18:07:31.242Z,100756.11
2019-04-14T18:12:09.632Z,100758.58
2019-04-14T18:16:40.139Z,100763.85
2019-04-14T18:20:51.220Z,100768.78
2019-04-14T18:25:02.161Z,100776.88
2019-04-14T18:29:29.142Z,100779.03
2019-04-14T18:34:00.094Z,100782.32
2019-04-14T18:38:35.094Z,100789.41
2019-04-14T18:43:01.765Z,100792.85
2019-04-14T18:47:22.050Z,100793.45
2019-04-14T18:51:35.437Z,100801.01
2019-04-14T18:56:11.231Z,100805.33
2019-04-14T19:00:42.738Z,100811.23
2019-04-14T19:04:49.533Z,100814.53
2019-04-14T19:08:57.261Z,100814.48
2019-04-14T19:13:13.675Z,100820.89
2019-04-14T19:17:31.674Z,100821.99
2019-04-14T19:21:38.514Z,100825.03
2019-04-14T19:25:45.661Z,100821.84
2019-04-14T19:29:52.624Z,100826.74
2019-04-14T19:33:59.338Z,100825.14
2019-04-14T19:38:07.967Z,100825.94
2019-04-14T19:42:15.186Z,100820.19
2019-04-14T19:46:22.081Z,100820.95
2019-04-14T19:50:29.258Z,100823.92
2019-04-14T19:54:36.147Z,100824.91
2019-04-14T19:58:43.145Z,100832.12
2019-04-14T20:02:50.205Z,100834.59
2019-04-14T20:06:56.944Z,100845.75
2019-04-14T20:11:03.675Z,100851.77
2019-04-14T20:15:30.803Z,100852.36
2019-04-14T20:19:55.063Z,100852.98
2019-04-14T20:24:18.868Z,100850.91
2019-04-14T20:28:40.037Z,100857.87
2019-04-14T20:32:47.056Z,100867.63
2019-04-14T20:36:53.756Z,100876.96
2019-04-14T20:41:04.617Z,100878.23
2019-04-14T20:45:14.245Z,100881.36
2019-04-14T20:49:21.128Z,100887.41
2019-04-14T20:53:28.302Z,100891.19
2019-04-14T20:57:35.105Z,100900.61
2019-04-14T21:01:45.237Z,100893.82
2019-04-14T21:06:23.213Z,100886.95
2019-04-14T21:10:44.161Z,100894.47
2019-04-14T21:15:26.946Z,100905.27
2019-04-14T21:20:06.732Z,100901.59
2019-04-14T21:24:40.521Z,100904.23
2019-04-14T21:28:51.314Z,100913.50
2019-04-14T21:33:10.702Z,100917.08
2019-04-14T21:37:32.720Z,100918.97
2019-04-14T21:41:39.377Z,100920.08
2019-04-14T21:45:46.230Z,100925.17
2019-04-14T21:49:53.541Z,100928.72
2019-04-14T21:54:01.871Z,100927.64
2019-04-14T21:58:42.632Z,100942.91
2019-04-14T22:03:10.586Z,100941.75
2019-04-14T22:07:51.544Z,100939.45
2019-04-14T22:11:58.739Z,100938.87
2019-04-14T22:16:05.660Z,100945.20
2019-04-14T22:20:12.478Z,100946.63
2019-04-14T22:24:19.909Z,100943.11
2019-04-14T22:28:26.724Z,100936.09
2019-04-14T22:32:47.117Z,100926.95
2019-04-14T22:36:53.894Z,100930.47
2019-04-14T22:41:10.120Z,100923.49
2019-04-14T22:45:17.118Z,100920.33
2019-04-14T22:49:23.885Z,100919.99
2019-04-14T22:53:32.953Z,100926.74
2019-04-14T22:57:40.028Z,100927.67
2019-04-14T23:01:54.791Z,100923.73
2019-04-14T23:06:23.596Z,100926.23
2019-04-14T23:10:44.968Z,100915.44
2019-04-14T23:15:03.588Z,100911.16
2019-04-14T23:19:17.836Z,100911.77
2019-04-14T23:23:43.522Z,100915.39
2019-04-14T23:27:50.296Z,100924.91
2019-04-14T23:31:57.214Z,100918.67
2019-04-14T23:36:04.332Z,100923.22
2019-04-14T23:40:13.019Z,100920.32
2019-04-14T23:44:19.793Z,100916.71
2019-04-14T23:48:26.588Z,100913.48
2019-04-14T23:52:33.446Z,100907.56
2019-04-14T23:56:40.148Z,100919.63
